Airfield :
LOGIN :

Register | Disclaimer

   EN    FR    IT 

 










Legend :    VFR   Marginal VFR   IFR   Intensive IFR   Very Intensive IFR
Visi :
Ceiling :
>= 8 km
>= 3000ft
5 to 8 km
1000 to 3000 ft
1500m to 5 km
500 to 1000 ft
800 to 1500m
200 to 500 ft
< 800m
< 200 ft
Symbols :   Thunderstorms  Fog  Heavy snow  Heavy precipitations  Wind > 20 kt
SIGMETs :     Misc.  Thunderstorms  Icing  Turbulence  Mountain Waves  Volcanic Ashes






- Airport Elevation : 1682 ft
- IATA code : VIT


LEVT - Vitoria Gasteiz

CURRENT METAR :
  • 091530Z 33011KT 9000 -RA SCT010 BKN021 08/06 Q1030

EXPIRED METARs :
  • 091500Z 31005KT 270V340 5000 RA SCT010 OVC019 08/07 Q1029
  • 091430Z 06002KT 9999 SCT012 BKN027 09/07 Q1029
  • 091400Z 26003KT 9999 SCT018 OVC030 09/06 Q1029
  • 091330Z 33003KT 9999 SCT017 BKN030 09/06 Q1029
  • 091300Z 33011G22KT 260V010 9999 -RA SCT017 BKN028 09/06 Q1029

TAF TAF LEVT
Valid from the 09 at 12:00 until the 10 at 12:00 UTC


091100Z 0912/1012 31010KT 9999 SCT025 BKN040 TX09/0914Z TNM01/1006Z
TEMPO 0912/0918 31015G25KT
PROB30
TEMPO 0912/0918 3000 -RADZ BKN012
BECMG 0918/0922 VRB03KT
TEMPO 1000/1012 0350 FG FZFG VV001
TEMPO 1000/1012 0150 FG FZFG VV001



MET'MAP, your aeronautical weather chart ! - Copyright ORBIFLY December 2007 - Disclaimer

ORBIFLY MET'MAP TEAM :

Programming & Development : Alexandra Zaïnal
Concept & original design : Baudouin d'Aumeries
Assistance for programming : Marc-Olivier Méhu
Technical & hardware support : Manuel Goepfert

Contact : metmap@orbifly.com




SOURCES & CREDITS :

   NOAA